createdAt,value
2023-02-26T00:00:44.384Z,94.71
2023-02-26T00:03:10.908Z,94.87
2023-02-26T00:05:37.452Z,95.57
2023-02-26T00:08:06.058Z,96.13
2023-02-26T00:10:32.679Z,97.17
2023-02-26T00:12:59.634Z,97.96
2023-02-26T00:15:27.160Z,99.60
2023-02-26T00:18:05.838Z,95.63
2023-02-26T00:20:33.335Z,96.80
2023-02-26T00:23:00.088Z,95.85
2023-02-26T00:25:26.572Z,93.81
2023-02-26T00:27:53.382Z,98.13
2023-02-26T00:30:20.173Z,99.11
2023-02-26T00:32:46.977Z,96.64
2023-02-26T00:35:16.160Z,95.47
2023-02-26T00:38:05.864Z,95.59
2023-02-26T00:40:45.532Z,96.08
2023-02-26T00:43:26.649Z,95.34
2023-02-26T00:46:03.173Z,93.88
2023-02-26T00:49:23.065Z,95.92
2023-02-26T00:51:55.544Z,94.19
2023-02-26T00:54:30.468Z,96.86
2023-02-26T00:56:59.301Z,97.54
2023-02-26T00:59:28.855Z,97.95
2023-02-26T01:01:55.302Z,96.95
2023-02-26T01:04:24.543Z,96.89
2023-02-26T01:06:54.726Z,93.77
2023-02-26T01:09:33.956Z,93.18
2023-02-26T01:12:05.473Z,97.60
2023-02-26T01:14:32.964Z,99.26
2023-02-26T01:17:08.743Z,100.00
2023-02-26T01:19:51.310Z,100.00
2023-02-26T01:22:25.922Z,100.00
2023-02-26T01:24:59.791Z,100.00
2023-02-26T01:27:27.367Z,99.65
2023-02-26T01:29:54.067Z,98.89
2023-02-26T01:32:26.783Z,99.99
2023-02-26T01:35:04.886Z,99.34
2023-02-26T01:37:53.931Z,99.51
2023-02-26T01:40:51.070Z,95.87
2023-02-26T01:43:28.523Z,95.60
2023-02-26T01:46:00.678Z,94.43
2023-02-26T01:48:37.205Z,94.72
2023-02-26T01:51:04.480Z,94.37
2023-02-26T01:53:31.080Z,94.86
2023-02-26T01:56:03.069Z,96.57
2023-02-26T01:58:33.713Z,97.78
2023-02-26T02:01:01.385Z,99.00
2023-02-26T02:03:31.718Z,99.31
2023-02-26T02:06:14.324Z,99.23
2023-02-26T02:08:40.890Z,99.95
2023-02-26T02:11:11.249Z,100.00
2023-02-26T02:14:05.005Z,100.00
2023-02-26T02:16:48.096Z,98.67
2023-02-26T02:19:26.367Z,98.46
2023-02-26T02:22:29.677Z,100.00
2023-02-26T02:25:42.734Z,97.21
2023-02-26T02:29:03.629Z,99.13
2023-02-26T02:31:44.020Z,100.00
2023-02-26T02:34:14.076Z,100.00
2023-02-26T02:37:32.441Z,97.79
2023-02-26T02:40:01.903Z,100.00
2023-02-26T02:42:50.893Z,99.54
2023-02-26T02:45:41.841Z,100.00
2023-02-26T02:48:16.837Z,99.35
2023-02-26T02:50:52.278Z,98.43
2023-02-26T02:53:30.708Z,96.54
2023-02-26T02:56:06.790Z,99.11
2023-02-26T02:58:39.997Z,99.14
2023-02-26T03:01:09.824Z,100.00
2023-02-26T03:04:07.307Z,100.00
2023-02-26T03:06:35.146Z,100.00
2023-02-26T03:09:04.260Z,100.00
2023-02-26T03:11:31.952Z,100.00
2023-02-26T03:13:59.458Z,100.00
2023-02-26T03:16:40.864Z,100.00
2023-02-26T03:19:34.451Z,100.00
2023-02-26T03:22:15.256Z,100.00
2023-02-26T03:25:28.869Z,100.00
2023-02-26T03:28:29.218Z,100.00
2023-02-26T03:31:21.531Z,100.00
2023-02-26T03:34:18.103Z,100.00
2023-02-26T03:36:55.457Z,100.00
2023-02-26T03:39:37.577Z,100.00
2023-02-26T03:42:38.136Z,100.00
2023-02-26T03:45:12.996Z,100.00
2023-02-26T03:47:42.555Z,100.00
2023-02-26T03:50:16.667Z,100.00
2023-02-26T03:52:47.288Z,100.00
2023-02-26T03:55:26.015Z,100.00
2023-02-26T03:57:52.945Z,100.00
2023-02-26T04:00:19.893Z,100.00
2023-02-26T04:03:01.375Z,100.00
2023-02-26T04:05:38.063Z,100.00
2023-02-26T04:08:11.645Z,100.00
2023-02-26T04:10:45.432Z,100.00
2023-02-26T04:13:11.912Z,100.00
2023-02-26T04:15:39.350Z,100.00
2023-02-26T04:18:06.009Z,100.00
2023-02-26T04:20:33.880Z,100.00
2023-02-26T04:23:00.330Z,100.00
2023-02-26T04:25:27.866Z,100.00
2023-02-26T04:27:54.274Z,100.00
2023-02-26T04:30:23.694Z,100.00
2023-02-26T04:32:50.192Z,100.00
2023-02-26T04:35:19.218Z,100.00
2023-02-26T04:37:45.655Z,100.00
2023-02-26T04:40:12.649Z,100.00
2023-02-26T04:42:40.120Z,100.00
2023-02-26T04:45:07.421Z,100.00
2023-02-26T04:47:40.908Z,100.00
2023-02-26T04:50:08.501Z,100.00
2023-02-26T04:52:36.072Z,100.00
2023-02-26T04:55:02.505Z,100.00
2023-02-26T04:57:28.969Z,100.00
2023-02-26T04:59:55.731Z,100.00
2023-02-26T05:02:22.143Z,100.00
2023-02-26T05:04:48.792Z,100.00
2023-02-26T05:07:15.301Z,100.00
2023-02-26T05:09:41.801Z,100.00
2023-02-26T05:12:08.355Z,100.00
2023-02-26T05:14:34.851Z,100.00
2023-02-26T05:17:01.865Z,100.00
2023-02-26T05:19:28.309Z,100.00
2023-02-26T05:21:54.740Z,100.00
2023-02-26T05:24:21.200Z,100.00
2023-02-26T05:26:47.660Z,100.00
2023-02-26T05:29:14.169Z,100.00
2023-02-26T05:31:40.707Z,100.00
2023-02-26T05:34:07.438Z,100.00
2023-02-26T05:36:33.890Z,100.00
2023-02-26T05:39:01.518Z,100.00
2023-02-26T05:41:27.986Z,100.00
2023-02-26T05:43:54.461Z,100.00
2023-02-26T05:46:23.310Z,100.00
2023-02-26T05:48:49.874Z,100.00
2023-02-26T05:51:17.324Z,100.00
2023-02-26T05:53:45.178Z,100.00
2023-02-26T05:56:12.917Z,100.00
2023-02-26T05:58:39.351Z,100.00
2023-02-26T06:01:05.892Z,100.00
2023-02-26T06:03:32.379Z,100.00
2023-02-26T06:05:58.906Z,100.00
2023-02-26T06:08:25.378Z,100.00
2023-02-26T06:10:52.297Z,100.00
2023-02-26T06:13:19.083Z,100.00
2023-02-26T06:15:45.579Z,100.00
2023-02-26T06:18:14.220Z,100.00
2023-02-26T06:20:40.660Z,100.00
2023-02-26T06:23:07.148Z,100.00
2023-02-26T06:25:33.647Z,100.00
2023-02-26T06:28:00.160Z,100.00
2023-02-26T06:30:27.883Z,100.00
2023-02-26T06:32:54.361Z,100.00
2023-02-26T06:35:21.063Z,100.00
2023-02-26T06:37:47.505Z,100.00
2023-02-26T06:40:14.203Z,100.00
2023-02-26T06:42:40.691Z,100.00
2023-02-26T06:45:07.954Z,100.00
2023-02-26T06:47:34.490Z,100.00
2023-02-26T06:50:00.962Z,100.00
2023-02-26T06:52:27.460Z,100.00
2023-02-26T06:54:54.188Z,100.00
2023-02-26T06:57:21.583Z,100.00
2023-02-26T06:59:49.130Z,100.00
2023-02-26T07:02:19.856Z,100.00
2023-02-26T07:04:46.296Z,100.00
2023-02-26T07:07:13.518Z,100.00
2023-02-26T07:09:40.309Z,99.35
2023-02-26T07:12:09.865Z,95.97
2023-02-26T07:14:36.595Z,93.80
2023-02-26T07:17:06.370Z,94.48
2023-02-26T07:19:32.831Z,93.99
2023-02-26T07:21:59.261Z,93.69
2023-02-26T07:24:25.717Z,95.72
2023-02-26T07:26:52.285Z,93.71
2023-02-26T07:29:19.059Z,95.33
2023-02-26T07:31:47.684Z,90.38
2023-02-26T07:34:14.164Z,84.07
2023-02-26T07:36:40.622Z,80.71
2023-02-26T07:39:11.200Z,76.67
2023-02-26T07:41:38.754Z,80.81
2023-02-26T07:44:05.656Z,71.44
2023-02-26T07:46:33.269Z,68.75
2023-02-26T07:48:59.835Z,66.26
2023-02-26T07:51:26.713Z,68.61
2023-02-26T07:53:53.378Z,68.86
2023-02-26T07:56:21.250Z,69.92
2023-02-26T07:58:47.866Z,72.66
2023-02-26T08:01:14.391Z,73.11
2023-02-26T08:03:42.096Z,78.51
2023-02-26T08:06:08.809Z,79.55
2023-02-26T08:08:35.478Z,80.85
2023-02-26T08:11:06.085Z,81.61
2023-02-26T08:13:38.469Z,78.35
2023-02-26T08:16:05.035Z,80.38
2023-02-26T08:18:31.566Z,78.91
2023-02-26T08:20:58.388Z,82.70
2023-02-26T08:23:26.787Z,82.05
2023-02-26T08:26:05.314Z,79.51
2023-02-26T08:28:33.136Z,81.32
2023-02-26T08:31:01.714Z,80.84
2023-02-26T08:33:29.251Z,80.93
2023-02-26T08:35:58.973Z,77.44
2023-02-26T08:38:26.805Z,77.62
2023-02-26T08:40:53.754Z,77.91
2023-02-26T08:43:20.590Z,74.71
2023-02-26T08:45:53.489Z,76.72
2023-02-26T08:48:20.230Z,81.67
2023-02-26T08:50:47.827Z,75.08
2023-02-26T08:53:14.414Z,75.39
2023-02-26T08:55:44.910Z,73.80
2023-02-26T08:58:12.523Z,74.10
2023-02-26T09:00:40.059Z,73.29
2023-02-26T09:03:08.892Z,73.74
2023-02-26T09:05:35.503Z,73.90
2023-02-26T09:08:02.105Z,73.68
2023-02-26T09:10:29.968Z,73.57
2023-02-26T09:12:58.698Z,71.91
2023-02-26T09:15:27.221Z,74.68
2023-02-26T09:17:54.734Z,70.29
2023-02-26T09:20:22.261Z,67.84
2023-02-26T09:22:54.731Z,67.81
2023-02-26T09:25:30.188Z,67.28
2023-02-26T09:27:58.770Z,66.07
2023-02-26T09:30:25.332Z,66.37
2023-02-26T09:32:51.848Z,68.97
2023-02-26T09:35:18.674Z,70.96
2023-02-26T09:37:45.193Z,74.72
2023-02-26T09:40:26.421Z,75.06
2023-02-26T09:43:01.812Z,79.06
2023-02-26T09:45:36.589Z,76.27
2023-02-26T09:48:05.697Z,77.73
2023-02-26T09:50:41.103Z,77.36
2023-02-26T09:53:25.332Z,77.45
2023-02-26T09:55:55.846Z,80.09
2023-02-26T09:58:34.000Z,79.02
2023-02-26T10:01:10.557Z,79.21
2023-02-26T10:04:03.823Z,77.37
2023-02-26T10:06:34.257Z,76.91
2023-02-26T10:09:27.360Z,78.66
2023-02-26T10:12:01.489Z,80.10
2023-02-26T10:14:36.183Z,79.00
2023-02-26T10:17:40.897Z,80.39
2023-02-26T10:20:24.499Z,80.50
2023-02-26T10:23:02.986Z,82.65
2023-02-26T10:25:46.640Z,89.82
2023-02-26T10:28:34.976Z,92.74
2023-02-26T10:31:36.244Z,89.84
2023-02-26T10:34:05.701Z,87.68
2023-02-26T10:36:51.117Z,83.77
2023-02-26T10:39:34.425Z,79.98
2023-02-26T10:42:30.694Z,81.78
2023-02-26T10:45:09.598Z,80.16
2023-02-26T10:47:36.147Z,77.33
2023-02-26T10:50:11.923Z,75.35
2023-02-26T10:52:38.856Z,77.18
2023-02-26T10:55:20.965Z,74.21
2023-02-26T10:57:50.314Z,70.30
2023-02-26T11:00:20.372Z,67.73
2023-02-26T11:02:51.917Z,69.31
2023-02-26T11:05:28.111Z,69.21
2023-02-26T11:07:58.829Z,66.37
2023-02-26T11:10:40.669Z,65.61
2023-02-26T11:13:09.044Z,62.53
2023-02-26T11:15:35.639Z,62.77
2023-02-26T11:18:02.481Z,61.47
2023-02-26T11:20:35.123Z,62.16
2023-02-26T11:23:04.673Z,60.82
2023-02-26T11:25:35.930Z,64.90
2023-02-26T11:28:06.599Z,62.78
2023-02-26T11:30:38.091Z,63.70
2023-02-26T11:33:16.055Z,61.86
2023-02-26T11:35:42.992Z,63.28
2023-02-26T11:38:18.302Z,61.29
2023-02-26T11:40:53.660Z,62.39
2023-02-26T11:43:24.404Z,61.72
2023-02-26T11:45:58.624Z,58.86
2023-02-26T11:48:30.916Z,60.14
2023-02-26T11:51:02.687Z,60.55
2023-02-26T11:53:37.471Z,60.42
2023-02-26T11:56:19.505Z,61.70
2023-02-26T11:58:46.357Z,60.52
2023-02-26T12:01:16.672Z,61.17
2023-02-26T12:03:47.272Z,61.11
2023-02-26T12:06:19.169Z,60.77
2023-02-26T12:08:46.481Z,60.57
2023-02-26T12:11:34.196Z,57.58
2023-02-26T12:14:39.061Z,61.77
2023-02-26T12:17:18.813Z,57.92
2023-02-26T12:20:15.411Z,58.18
2023-02-26T12:23:09.888Z,58.71
2023-02-26T12:25:50.312Z,58.66
2023-02-26T12:28:43.783Z,60.79
2023-02-26T12:31:42.290Z,60.37
2023-02-26T12:34:20.255Z,60.88
2023-02-26T12:37:05.562Z,61.10
2023-02-26T12:40:08.443Z,59.70
2023-02-26T12:43:11.937Z,60.40
2023-02-26T12:46:02.659Z,62.15
2023-02-26T12:48:41.425Z,59.84
2023-02-26T12:51:39.410Z,59.96
2023-02-26T12:54:21.113Z,59.68
2023-02-26T12:56:47.518Z,60.55
2023-02-26T12:59:27.732Z,63.94
2023-02-26T13:02:28.307Z,61.24
2023-02-26T13:05:32.365Z,62.72
2023-02-26T13:08:20.155Z,62.37
2023-02-26T13:11:20.769Z,63.83
2023-02-26T13:14:05.313Z,63.61
2023-02-26T13:16:42.987Z,64.35
2023-02-26T13:19:37.855Z,65.18
2023-02-26T13:22:16.081Z,63.62
2023-02-26T13:25:21.993Z,62.43
2023-02-26T13:27:51.527Z,62.04
2023-02-26T13:30:31.434Z,60.37
2023-02-26T13:33:00.062Z,59.21
2023-02-26T13:35:38.240Z,59.37
2023-02-26T13:38:43.837Z,59.56
2023-02-26T13:41:25.806Z,59.66
2023-02-26T13:44:09.165Z,61.52
2023-02-26T13:46:51.558Z,62.26
2023-02-26T13:49:22.998Z,70.09
2023-02-26T13:51:52.709Z,72.21
2023-02-26T13:54:22.032Z,79.59
2023-02-26T13:56:57.695Z,76.06
2023-02-26T13:59:37.722Z,78.74
2023-02-26T14:02:34.694Z,76.99
2023-02-26T14:05:01.378Z,78.33
2023-02-26T14:07:53.211Z,74.72
2023-02-26T14:10:29.776Z,75.62
2023-02-26T14:13:08.453Z,75.79
2023-02-26T14:16:02.013Z,72.77
2023-02-26T14:18:40.698Z,74.17
2023-02-26T14:21:29.069Z,70.93
2023-02-26T14:24:19.376Z,72.76
2023-02-26T14:27:09.128Z,65.21
2023-02-26T14:30:10.619Z,65.10
2023-02-26T14:32:59.424Z,63.72
2023-02-26T14:35:31.960Z,64.76
2023-02-26T14:38:11.063Z,65.67
2023-02-26T14:40:47.759Z,67.48
2023-02-26T14:43:30.092Z,69.69
2023-02-26T14:45:57.630Z,69.80
2023-02-26T14:48:30.207Z,71.11
2023-02-26T14:51:02.300Z,72.69
2023-02-26T14:54:00.930Z,71.73
2023-02-26T14:56:50.834Z,72.30
2023-02-26T14:59:29.649Z,70.44
2023-02-26T15:02:17.870Z,67.90
2023-02-26T15:05:22.579Z,68.58
2023-02-26T15:08:03.956Z,65.42
2023-02-26T15:10:40.206Z,67.57
2023-02-26T15:13:27.005Z,67.28
2023-02-26T15:16:15.365Z,66.55
2023-02-26T15:19:04.709Z,64.69
2023-02-26T15:21:45.268Z,64.76
2023-02-26T15:24:15.804Z,63.54
2023-02-26T15:26:50.905Z,65.13
2023-02-26T15:29:18.175Z,65.42
2023-02-26T15:31:54.819Z,65.09
2023-02-26T15:34:21.452Z,64.83
2023-02-26T15:36:53.210Z,65.71
2023-02-26T15:39:23.376Z,64.64
2023-02-26T15:41:52.181Z,65.96
2023-02-26T15:44:22.375Z,65.61
2023-02-26T15:46:59.494Z,64.35
2023-02-26T15:49:42.548Z,65.49
2023-02-26T15:52:13.458Z,65.68
2023-02-26T15:54:45.398Z,65.85
2023-02-26T15:57:13.997Z,65.52
2023-02-26T15:59:46.422Z,65.26
2023-02-26T16:02:21.091Z,65.98
2023-02-26T16:04:47.698Z,67.13
2023-02-26T16:07:14.940Z,66.36
2023-02-26T16:09:52.741Z,66.33
2023-02-26T16:12:22.574Z,66.21
2023-02-26T16:14:53.768Z,66.39
2023-02-26T16:17:27.525Z,65.41
2023-02-26T16:19:57.228Z,65.47
2023-02-26T16:22:32.182Z,65.70
2023-02-26T16:25:02.674Z,66.99
2023-02-26T16:27:31.020Z,68.51
2023-02-26T16:30:00.474Z,69.68
2023-02-26T16:32:31.841Z,72.58
2023-02-26T16:35:00.894Z,73.52
2023-02-26T16:37:31.753Z,78.30
2023-02-26T16:40:17.877Z,77.19
2023-02-26T16:42:51.672Z,79.93
2023-02-26T16:45:36.551Z,77.04
2023-02-26T16:48:15.234Z,78.33
2023-02-26T16:50:42.566Z,77.62
2023-02-26T16:53:20.480Z,79.18
2023-02-26T16:55:53.790Z,80.79
2023-02-26T16:58:26.638Z,81.11
2023-02-26T17:01:02.516Z,83.60
2023-02-26T17:03:30.587Z,84.90
2023-02-26T17:06:04.328Z,82.88
2023-02-26T17:08:49.770Z,82.60
2023-02-26T17:11:24.195Z,81.14
2023-02-26T17:14:12.741Z,81.01
2023-02-26T17:16:39.509Z,81.11
2023-02-26T17:19:07.379Z,80.43
2023-02-26T17:21:42.270Z,83.04
2023-02-26T17:24:15.421Z,84.58
2023-02-26T17:26:42.220Z,84.58
2023-02-26T17:29:19.934Z,83.97
2023-02-26T17:31:46.505Z,82.70
2023-02-26T17:34:13.216Z,83.58
2023-02-26T17:36:41.811Z,81.56
2023-02-26T17:39:12.865Z,81.43
2023-02-26T17:41:44.925Z,82.05
2023-02-26T17:44:13.529Z,80.95
2023-02-26T17:46:40.118Z,82.63
2023-02-26T17:49:06.737Z,81.40
2023-02-26T17:51:33.250Z,81.34
2023-02-26T17:53:59.660Z,80.27
2023-02-26T17:56:29.279Z,80.42
2023-02-26T17:58:57.377Z,80.38
2023-02-26T18:01:24.993Z,80.95
2023-02-26T18:03:51.876Z,81.04
2023-02-26T18:06:18.464Z,81.40
2023-02-26T18:08:46.687Z,80.88
2023-02-26T18:11:14.126Z,80.04
2023-02-26T18:13:42.072Z,80.10
2023-02-26T18:16:33.301Z,80.34
2023-02-26T18:19:00.403Z,79.73
2023-02-26T18:21:27.871Z,78.94
2023-02-26T18:23:57.657Z,77.04
2023-02-26T18:26:27.852Z,79.00
2023-02-26T18:29:03.840Z,77.90
2023-02-26T18:31:35.268Z,78.98
2023-02-26T18:34:02.583Z,79.81
2023-02-26T18:36:35.647Z,80.12
2023-02-26T18:39:12.669Z,80.00
2023-02-26T18:41:41.733Z,80.22
2023-02-26T18:44:16.851Z,78.59
2023-02-26T18:46:44.860Z,79.07
2023-02-26T18:49:17.344Z,79.31
2023-02-26T18:51:43.808Z,78.51
2023-02-26T18:54:10.372Z,79.25
2023-02-26T18:56:38.643Z,78.83
2023-02-26T18:59:05.601Z,78.02
2023-02-26T19:01:32.311Z,79.88
2023-02-26T19:04:07.511Z,79.37
2023-02-26T19:06:40.813Z,79.81
2023-02-26T19:09:13.552Z,79.99
2023-02-26T19:11:42.504Z,78.49
2023-02-26T19:14:09.603Z,79.13
2023-02-26T19:16:38.984Z,79.68
2023-02-26T19:19:07.769Z,80.37
2023-02-26T19:21:36.239Z,79.99
2023-02-26T19:24:06.341Z,80.42
2023-02-26T19:26:34.196Z,80.67
2023-02-26T19:29:08.256Z,80.43
2023-02-26T19:31:36.571Z,81.01
2023-02-26T19:34:10.868Z,82.16
2023-02-26T19:36:37.306Z,82.30
2023-02-26T19:39:05.435Z,80.96
2023-02-26T19:41:32.910Z,81.76
2023-02-26T19:43:59.405Z,81.38
2023-02-26T19:46:27.196Z,81.88
2023-02-26T19:48:53.946Z,82.22
2023-02-26T19:51:22.536Z,81.84
2023-02-26T19:53:49.025Z,81.45
2023-02-26T19:56:19.789Z,81.82
2023-02-26T19:58:46.190Z,82.68
2023-02-26T20:01:12.687Z,81.43
2023-02-26T20:03:39.178Z,81.93
2023-02-26T20:06:08.398Z,82.67
2023-02-26T20:08:34.834Z,81.48
2023-02-26T20:11:02.236Z,82.40
2023-02-26T20:13:30.110Z,80.68
2023-02-26T20:16:00.219Z,80.41
2023-02-26T20:18:28.653Z,81.66
2023-02-26T20:20:55.317Z,80.71
2023-02-26T20:23:21.789Z,81.57
2023-02-26T20:25:50.500Z,81.45
2023-02-26T20:28:18.665Z,81.52
2023-02-26T20:30:45.881Z,80.86
2023-02-26T20:33:12.902Z,82.60
2023-02-26T20:35:44.425Z,80.84
2023-02-26T20:38:11.134Z,81.76
2023-02-26T20:40:38.388Z,82.52
2023-02-26T20:43:05.039Z,82.84
2023-02-26T20:45:32.184Z,82.86
2023-02-26T20:47:58.683Z,82.44
2023-02-26T20:50:31.297Z,83.09
2023-02-26T20:52:57.745Z,83.30
2023-02-26T20:55:24.377Z,83.10
2023-02-26T20:57:51.913Z,82.97
2023-02-26T21:00:18.904Z,82.94
2023-02-26T21:02:45.913Z,82.66
2023-02-26T21:05:17.099Z,82.09
2023-02-26T21:07:43.872Z,82.76
2023-02-26T21:10:13.212Z,82.25
2023-02-26T21:12:39.754Z,83.35
2023-02-26T21:15:10.604Z,84.90
2023-02-26T21:17:39.252Z,85.68
2023-02-26T21:20:06.315Z,84.36
2023-02-26T21:22:38.059Z,84.40
2023-02-26T21:25:06.554Z,84.76
2023-02-26T21:27:35.866Z,84.35
2023-02-26T21:30:06.678Z,84.12
2023-02-26T21:32:33.716Z,84.10
2023-02-26T21:35:00.266Z,83.51
2023-02-26T21:37:27.557Z,82.81
2023-02-26T21:39:54.109Z,83.29
2023-02-26T21:42:26.670Z,83.46
2023-02-26T21:44:53.144Z,84.30
2023-02-26T21:47:19.628Z,84.30
2023-02-26T21:49:46.090Z,83.61
2023-02-26T21:52:12.972Z,83.49
2023-02-26T21:54:39.832Z,83.37
2023-02-26T21:57:06.905Z,84.58
2023-02-26T21:59:33.525Z,85.09
2023-02-26T22:02:00.121Z,85.37
2023-02-26T22:04:26.846Z,87.57
2023-02-26T22:06:53.570Z,86.03
2023-02-26T22:09:20.198Z,85.64
2023-02-26T22:11:47.274Z,86.06
2023-02-26T22:14:15.853Z,86.67
2023-02-26T22:16:42.330Z,86.10
2023-02-26T22:19:08.981Z,87.21
2023-02-26T22:21:35.548Z,85.21
2023-02-26T22:24:03.700Z,86.12
2023-02-26T22:26:30.393Z,86.46
2023-02-26T22:28:59.311Z,87.21
2023-02-26T22:31:39.753Z,85.90
2023-02-26T22:34:06.175Z,85.13
2023-02-26T22:36:34.642Z,87.77
2023-02-26T22:39:01.085Z,88.03
2023-02-26T22:41:27.833Z,88.72
2023-02-26T22:43:54.982Z,87.66
2023-02-26T22:46:24.446Z,88.05
2023-02-26T22:48:51.644Z,86.42
2023-02-26T22:51:18.162Z,86.88
2023-02-26T22:53:44.638Z,88.53
2023-02-26T22:56:11.115Z,88.54
2023-02-26T22:58:38.547Z,88.60
2023-02-26T23:01:06.857Z,88.16
2023-02-26T23:03:34.203Z,86.45
2023-02-26T23:06:01.415Z,89.27
2023-02-26T23:08:28.118Z,87.56
2023-02-26T23:10:58.867Z,88.39
2023-02-26T23:13:25.983Z,88.65
2023-02-26T23:15:52.813Z,88.11
2023-02-26T23:18:19.652Z,89.77
2023-02-26T23:20:47.607Z,88.21
2023-02-26T23:23:21.081Z,89.00
2023-02-26T23:25:47.680Z,88.57
2023-02-26T23:28:14.226Z,88.63
2023-02-26T23:30:45.351Z,89.25
2023-02-26T23:33:12.423Z,88.06
2023-02-26T23:35:39.553Z,86.91
2023-02-26T23:38:07.054Z,87.09
2023-02-26T23:40:34.061Z,89.41
2023-02-26T23:43:00.951Z,88.41
2023-02-26T23:45:27.398Z,87.81
2023-02-26T23:47:53.792Z,88.44
2023-02-26T23:50:20.619Z,88.11
2023-02-26T23:52:50.999Z,87.79
2023-02-26T23:55:18.080Z,88.23
2023-02-26T23:57:45.086Z,88.31
